createdAt,value
2016-11-30T00:00:33.353Z,81.55
2016-11-30T00:01:33.987Z,80.41
2016-11-30T00:02:34.657Z,78.9
2016-11-30T00:03:35.335Z,77.58
2016-11-30T00:04:35.948Z,76.63
2016-11-30T00:05:36.646Z,77.1
2016-11-30T00:06:37.281Z,76.82
2016-11-30T00:07:37.901Z,76.91
2016-11-30T00:08:38.546Z,77.29
2016-11-30T00:09:39.219Z,77.2
2016-11-30T00:10:39.879Z,77.67
2016-11-30T00:11:40.509Z,77.58
2016-11-30T00:12:41.158Z,78.23
2016-11-30T00:13:41.789Z,78.05
2016-11-30T00:14:42.425Z,77.63
2016-11-30T00:15:43.060Z,77.58
2016-11-30T00:16:43.757Z,78.01
2016-11-30T00:17:44.364Z,77.95
2016-11-30T00:18:45.008Z,78.05
2016-11-30T00:19:45.648Z,77.95
2016-11-30T00:20:46.269Z,77.95
2016-11-30T00:21:46.901Z,77.76
2016-11-30T00:22:47.528Z,77.86
2016-11-30T00:23:48.377Z,77.82
2016-11-30T00:24:48.968Z,77.86
2016-11-30T00:25:49.592Z,77.82
2016-11-30T00:26:50.299Z,77.76
2016-11-30T00:27:50.894Z,77.39
2016-11-30T00:28:51.561Z,77.44
2016-11-30T00:29:52.205Z,78.01
2016-11-30T00:30:52.860Z,78.1
2016-11-30T00:31:53.522Z,77.95
2016-11-30T00:32:54.180Z,77.82
2016-11-30T00:33:54.821Z,78.05
2016-11-30T00:34:55.454Z,78.05
2016-11-30T00:35:56.113Z,77.67
2016-11-30T00:36:56.762Z,77.72
2016-11-30T00:37:57.402Z,77.58
2016-11-30T00:38:58.048Z,77.25
2016-11-30T00:39:58.699Z,77.82
2016-11-30T00:40:59.348Z,77.44
2016-11-30T00:42:00.012Z,76.82
2016-11-30T00:43:00.664Z,77.06
2016-11-30T00:44:01.344Z,76.78
2016-11-30T00:45:02.024Z,76.78
2016-11-30T00:46:02.701Z,76.91
2016-11-30T00:47:03.366Z,76.91
2016-11-30T00:48:04.038Z,76.82
2016-11-30T00:49:04.672Z,76.72
2016-11-30T00:50:05.318Z,76.72
2016-11-30T00:51:05.964Z,76.91
2016-11-30T00:52:06.613Z,76.91
2016-11-30T00:53:07.274Z,76.72
2016-11-30T00:54:07.926Z,76.44
2016-11-30T00:55:08.581Z,76.25
2016-11-30T00:56:09.223Z,76.25
2016-11-30T00:57:09.869Z,75.96
2016-11-30T00:58:10.588Z,76.25
2016-11-30T00:59:11.225Z,76.15
2016-11-30T01:00:11.891Z,75.78
2016-11-30T01:01:12.529Z,75.59
2016-11-30T01:02:13.216Z,75.59
2016-11-30T01:03:13.795Z,75.49
2016-11-30T01:04:14.426Z,75.78
2016-11-30T01:05:15.041Z,75.59
2016-11-30T01:06:15.668Z,75.68
2016-11-30T01:07:16.371Z,75.68
2016-11-30T01:08:17.001Z,75.49
2016-11-30T01:09:17.640Z,76.15
2016-11-30T01:10:18.304Z,75.68
2016-11-30T01:11:18.890Z,75.4
2016-11-30T01:12:19.541Z,75.49
2016-11-30T01:13:20.177Z,75.49
2016-11-30T01:14:20.833Z,76.06
2016-11-30T01:15:21.521Z,75.59
2016-11-30T01:16:22.205Z,75.12
2016-11-30T01:17:22.881Z,74.83
2016-11-30T01:18:23.487Z,74.64
2016-11-30T01:19:24.169Z,74.45
2016-11-30T01:20:24.829Z,74.26
2016-11-30T01:21:25.464Z,74.55
2016-11-30T01:22:26.127Z,74.55
2016-11-30T01:23:26.801Z,74.74
2016-11-30T01:24:27.423Z,74.55
2016-11-30T01:25:28.077Z,73.98
2016-11-30T01:26:28.742Z,74.17
2016-11-30T01:27:29.339Z,74.17
2016-11-30T01:28:29.993Z,73.88
2016-11-30T01:29:30.614Z,73.41
2016-11-30T01:30:31.258Z,73.79
2016-11-30T01:31:31.904Z,73.79
2016-11-30T01:32:32.575Z,74.07
2016-11-30T01:33:33.237Z,73.32
2016-11-30T01:34:33.883Z,73.32
2016-11-30T01:35:34.547Z,73.32
2016-11-30T01:36:35.191Z,72.94
2016-11-30T01:37:35.879Z,73.03
2016-11-30T01:38:36.540Z,73.22
2016-11-30T01:39:37.182Z,73.6
2016-11-30T01:40:37.840Z,73.5
2016-11-30T01:41:38.509Z,73.22
2016-11-30T01:42:39.159Z,73.03
2016-11-30T01:43:39.839Z,72.94
2016-11-30T01:44:40.524Z,72.66
2016-11-30T01:45:41.180Z,72.85
2016-11-30T01:46:41.891Z,72.85
2016-11-30T01:47:42.563Z,73.13
2016-11-30T01:48:43.189Z,72.37
2016-11-30T01:49:43.830Z,72.75
2016-11-30T01:50:44.488Z,72.75
2016-11-30T01:51:45.129Z,72.66
2016-11-30T01:52:45.801Z,72.94
2016-11-30T01:53:46.434Z,72.66
2016-11-30T01:54:47.095Z,72.56
2016-11-30T01:55:47.784Z,72.66
2016-11-30T01:56:48.386Z,72.75
2016-11-30T01:57:49.019Z,72.18
2016-11-30T01:58:49.745Z,72.09
2016-11-30T01:59:50.351Z,72.18
2016-11-30T02:00:51.032Z,71.71
2016-11-30T02:01:51.632Z,71.61
2016-11-30T02:02:52.282Z,71.8
2016-11-30T02:03:52.936Z,71.71
2016-11-30T02:04:53.597Z,71.99
2016-11-30T02:05:54.254Z,71.8
2016-11-30T02:06:54.924Z,71.99
2016-11-30T02:07:55.581Z,71.8
2016-11-30T02:08:56.195Z,71.52
2016-11-30T02:09:56.862Z,71.61
2016-11-30T02:10:57.522Z,71.52
2016-11-30T02:11:58.162Z,71.61
2016-11-30T02:12:58.790Z,71.33
2016-11-30T02:13:59.438Z,71.61
2016-11-30T02:15:00.112Z,71.55
2016-11-30T02:16:00.759Z,71.52
2016-11-30T02:17:01.358Z,71.71
2016-11-30T02:18:02.025Z,71.46
2016-11-30T02:19:02.651Z,71.8
2016-11-30T02:20:03.291Z,71.33
2016-11-30T02:21:03.897Z,71.55
2016-11-30T02:22:04.535Z,71.52
2016-11-30T02:23:05.168Z,71.61
2016-11-30T02:24:05.847Z,71.65
2016-11-30T02:25:06.537Z,71.65
2016-11-30T02:26:07.226Z,71.99
2016-11-30T02:27:07.846Z,71.33
2016-11-30T02:28:08.557Z,71.65
2016-11-30T02:29:09.189Z,71.36
2016-11-30T02:30:09.865Z,71.42
2016-11-30T02:31:10.482Z,71.52
2016-11-30T02:32:11.135Z,71.17
2016-11-30T02:33:11.783Z,71.08
2016-11-30T02:34:12.425Z,70.61
2016-11-30T02:35:13.055Z,70.7
2016-11-30T02:36:13.691Z,70.67
2016-11-30T02:37:14.335Z,70.76
2016-11-30T02:38:15.034Z,70.67
2016-11-30T02:39:15.669Z,70.7
2016-11-30T02:40:16.275Z,70.42
2016-11-30T02:41:16.911Z,70.29
2016-11-30T02:42:17.566Z,70.32
2016-11-30T02:43:18.224Z,70.89
2016-11-30T02:44:18.870Z,70.39
2016-11-30T02:45:19.551Z,69.95
2016-11-30T02:46:20.158Z,69.53
2016-11-30T02:47:20.790Z,69.91
2016-11-30T02:48:21.445Z,70.29
2016-11-30T02:49:22.098Z,70.29
2016-11-30T02:50:22.761Z,69.95
2016-11-30T02:51:23.393Z,70.2
2016-11-30T02:52:24.044Z,69.91
2016-11-30T02:53:24.700Z,69.95
2016-11-30T02:54:25.356Z,70.14
2016-11-30T02:55:25.998Z,70.23
2016-11-30T02:56:26.638Z,70.14
2016-11-30T02:57:27.275Z,70.04
2016-11-30T02:58:27.919Z,69.91
2016-11-30T02:59:28.565Z,70.01
2016-11-30T03:00:29.220Z,69.53
2016-11-30T03:01:29.862Z,69.66
2016-11-30T03:02:30.520Z,69.63
2016-11-30T03:03:31.209Z,69.57
2016-11-30T03:04:31.845Z,69.53
2016-11-30T03:05:32.503Z,69.91
2016-11-30T03:06:33.154Z,69.28
2016-11-30T03:07:33.795Z,69.28
2016-11-30T03:08:34.426Z,69.85
2016-11-30T03:09:35.155Z,69.82
2016-11-30T03:10:35.754Z,69.19
2016-11-30T03:11:36.393Z,69.44
2016-11-30T03:12:37.037Z,69.25
2016-11-30T03:13:37.686Z,69.19
2016-11-30T03:14:38.326Z,69.34
2016-11-30T03:15:38.966Z,69.25
2016-11-30T03:16:39.608Z,69.15
2016-11-30T03:17:40.248Z,69.57
2016-11-30T03:18:40.959Z,69.63
2016-11-30T03:19:41.552Z,68.9
2016-11-30T03:20:42.194Z,68.81
2016-11-30T03:21:42.901Z,69.19
2016-11-30T03:22:43.513Z,69.44
2016-11-30T03:23:44.180Z,68.96
2016-11-30T03:24:44.835Z,69.44
2016-11-30T03:25:45.467Z,69.25
2016-11-30T03:26:46.139Z,69.34
2016-11-30T03:27:46.788Z,69.47
2016-11-30T03:28:47.430Z,69.44
2016-11-30T03:29:48.053Z,69.25
2016-11-30T03:30:48.726Z,69.28
2016-11-30T03:31:49.375Z,69.09
2016-11-30T03:32:50.027Z,68.96
2016-11-30T03:33:50.660Z,68.81
2016-11-30T03:34:51.295Z,69.15
2016-11-30T03:35:51.929Z,69.34
2016-11-30T03:36:52.570Z,69.25
2016-11-30T03:37:53.212Z,69.34
2016-11-30T03:38:53.926Z,69.25
2016-11-30T03:39:54.532Z,69
2016-11-30T03:40:55.162Z,69.25
2016-11-30T03:41:55.816Z,69.44
2016-11-30T03:42:56.518Z,69.76
2016-11-30T03:43:57.199Z,69.91
2016-11-30T03:44:57.840Z,69.15
2016-11-30T03:45:58.527Z,69.06
2016-11-30T03:46:59.162Z,69.25
2016-11-30T03:47:59.795Z,68.96
2016-11-30T03:49:00.466Z,69.25
2016-11-30T03:50:01.129Z,69.34
2016-11-30T03:51:01.792Z,69.34
2016-11-30T03:52:02.427Z,69.63
2016-11-30T03:53:03.080Z,69.15
2016-11-30T03:54:03.712Z,69.34
2016-11-30T03:55:04.387Z,68.96
2016-11-30T03:56:05.028Z,69.34
2016-11-30T03:57:05.675Z,69.34
2016-11-30T03:58:06.309Z,69.15
2016-11-30T03:59:06.965Z,69.25
2016-11-30T04:00:07.627Z,69.53
2016-11-30T04:01:08.350Z,69.44
2016-11-30T04:02:08.935Z,69.34
2016-11-30T04:03:09.566Z,69.25
2016-11-30T04:04:10.207Z,69.63
2016-11-30T04:05:10.843Z,69.25
2016-11-30T04:06:11.487Z,69.06
2016-11-30T04:07:12.151Z,69.53
2016-11-30T04:08:12.823Z,69.15
2016-11-30T04:09:13.449Z,69.72
2016-11-30T04:10:14.073Z,69.53
2016-11-30T04:11:14.736Z,69.25
2016-11-30T04:12:15.371Z,69.63
2016-11-30T04:13:16.011Z,69.82
2016-11-30T04:14:16.643Z,69.82
2016-11-30T04:15:17.342Z,69.91
2016-11-30T04:16:17.963Z,70.29
2016-11-30T04:17:18.664Z,70.01
2016-11-30T04:18:19.314Z,70.48
2016-11-30T04:19:19.955Z,70.39
2016-11-30T04:20:20.618Z,70.39
2016-11-30T04:21:21.252Z,70.76
2016-11-30T04:22:21.900Z,71.42
2016-11-30T04:23:22.580Z,71.52
2016-11-30T04:24:23.249Z,71.9
2016-11-30T04:25:23.865Z,71.74
2016-11-30T04:26:24.501Z,71.71
2016-11-30T04:27:25.143Z,72.28
2016-11-30T04:28:25.794Z,72.18
2016-11-30T04:29:26.448Z,72.28
2016-11-30T04:30:27.082Z,72.85
2016-11-30T04:31:27.721Z,72.41
2016-11-30T04:32:28.371Z,72.28
2016-11-30T04:33:29.012Z,72.56
2016-11-30T04:34:29.637Z,72.75
2016-11-30T04:35:30.267Z,72.69
2016-11-30T04:36:30.906Z,72.85
2016-11-30T04:37:31.551Z,72.66
2016-11-30T04:38:32.208Z,72.22
2016-11-30T04:39:32.875Z,72.88
2016-11-30T04:40:33.498Z,72.31
2016-11-30T04:41:34.151Z,72.56
2016-11-30T04:42:34.797Z,72.69
2016-11-30T04:43:35.447Z,72.41
2016-11-30T04:44:36.085Z,72.88
2016-11-30T04:45:36.707Z,72.78
2016-11-30T04:46:37.385Z,72.5
2016-11-30T04:47:37.997Z,72.88
2016-11-30T04:48:38.634Z,73.07
2016-11-30T04:49:39.293Z,73.16
2016-11-30T04:50:39.948Z,73.45
2016-11-30T04:51:40.606Z,73.83
2016-11-30T04:52:41.283Z,74.3
2016-11-30T04:53:41.911Z,73.92
2016-11-30T04:54:42.505Z,73.83
2016-11-30T04:55:43.154Z,73.83
2016-11-30T04:56:43.792Z,73.73
2016-11-30T04:57:44.464Z,73.92
2016-11-30T04:58:45.065Z,74.02
2016-11-30T04:59:45.703Z,74.21
2016-11-30T05:00:46.350Z,73.83
2016-11-30T05:01:47.002Z,73.83
2016-11-30T05:02:47.678Z,74.3
2016-11-30T05:03:48.299Z,74.58
2016-11-30T05:04:48.973Z,74.11
2016-11-30T05:05:49.655Z,73.92
2016-11-30T05:06:50.269Z,74.11
2016-11-30T05:07:50.909Z,74.21
2016-11-30T05:08:51.552Z,74.21
2016-11-30T05:09:52.187Z,73.45
2016-11-30T05:10:52.815Z,73.54
2016-11-30T05:11:53.464Z,74.02
2016-11-30T05:12:54.135Z,74.49
2016-11-30T05:13:54.808Z,74.21
2016-11-30T05:14:55.449Z,74.49
2016-11-30T05:15:56.095Z,74.02
2016-11-30T05:16:56.748Z,73.83
2016-11-30T05:17:57.394Z,73.92
2016-11-30T05:18:58.044Z,74.02
2016-11-30T05:19:58.699Z,73.92
2016-11-30T05:20:59.374Z,73.64
2016-11-30T05:22:00.024Z,74.4
2016-11-30T05:23:00.680Z,74.58
2016-11-30T05:24:01.403Z,74.77
2016-11-30T05:25:02.052Z,74.87
2016-11-30T05:26:02.713Z,74.77
2016-11-30T05:27:03.350Z,75.24
2016-11-30T05:28:03.972Z,75.15
2016-11-30T05:29:04.666Z,75.15
2016-11-30T05:30:05.308Z,75.15
2016-11-30T05:31:05.934Z,75.43
2016-11-30T05:32:06.609Z,75.53
2016-11-30T05:33:07.192Z,75.62
2016-11-30T05:34:07.819Z,75.72
2016-11-30T05:35:08.436Z,75.91
2016-11-30T05:36:09.093Z,76.1
2016-11-30T05:37:09.726Z,76.29
2016-11-30T05:38:10.412Z,77.23
2016-11-30T05:39:11.017Z,77.14
2016-11-30T05:40:11.684Z,78.08
2016-11-30T05:41:12.334Z,78.18
2016-11-30T05:42:12.981Z,77.8
2016-11-30T05:43:13.612Z,78.56
2016-11-30T05:44:14.293Z,79.22
2016-11-30T05:45:14.916Z,79.03
2016-11-30T05:46:15.564Z,79.5
2016-11-30T05:47:16.200Z,79.88
2016-11-30T05:48:16.854Z,79.41
2016-11-30T05:49:17.557Z,78.94
2016-11-30T05:50:18.123Z,78.94
2016-11-30T05:51:18.763Z,79.32
2016-11-30T05:52:19.399Z,78.94
2016-11-30T05:53:20.013Z,79.32
2016-11-30T05:54:20.666Z,79.69
2016-11-30T05:55:21.402Z,79.6
2016-11-30T05:56:21.991Z,79.5
2016-11-30T05:57:22.656Z,79.88
2016-11-30T05:58:23.299Z,79.79
2016-11-30T05:59:23.946Z,79.79
2016-11-30T06:00:24.661Z,79.6
2016-11-30T06:01:25.254Z,80.07
2016-11-30T06:02:25.905Z,79.79
2016-11-30T06:03:26.537Z,80.07
2016-11-30T06:04:27.180Z,79.98
2016-11-30T06:05:27.839Z,80.36
2016-11-30T06:06:28.465Z,80.64
2016-11-30T06:07:29.113Z,80.74
2016-11-30T06:08:29.772Z,80.83
2016-11-30T06:09:30.367Z,80.83
2016-11-30T06:10:31.039Z,80.83
2016-11-30T06:11:31.668Z,80.64
2016-11-30T06:12:32.349Z,80.55
2016-11-30T06:13:32.942Z,80.83
2016-11-30T06:14:33.598Z,81.02
2016-11-30T06:15:34.240Z,81.59
2016-11-30T06:16:34.882Z,81.59
2016-11-30T06:17:35.507Z,81.68
2016-11-30T06:18:36.183Z,82.15
2016-11-30T06:19:36.845Z,82.25
2016-11-30T06:20:37.467Z,82.82
2016-11-30T06:21:38.126Z,83.01
2016-11-30T06:22:38.813Z,82.91
2016-11-30T06:23:39.442Z,83.39
2016-11-30T06:24:40.091Z,83.76
2016-11-30T06:25:40.702Z,84.23
2016-11-30T06:26:41.377Z,84.38
2016-11-30T06:27:42.007Z,84.56
2016-11-30T06:28:42.648Z,84.75
2016-11-30T06:29:43.286Z,84.75
2016-11-30T06:30:43.949Z,84.85
2016-11-30T06:31:44.555Z,84.94
2016-11-30T06:32:45.209Z,85.13
2016-11-30T06:33:45.883Z,85.04
2016-11-30T06:34:46.546Z,85.13
2016-11-30T06:35:47.193Z,85.7
2016-11-30T06:36:47.829Z,85.32
2016-11-30T06:37:48.614Z,85.7
2016-11-30T06:38:49.253Z,85.99
2016-11-30T06:39:49.894Z,86.27
2016-11-30T06:40:50.548Z,86.27
2016-11-30T06:41:51.202Z,86.27
2016-11-30T06:42:51.852Z,86.65
2016-11-30T06:43:52.485Z,86.46
2016-11-30T06:44:53.127Z,86.46
2016-11-30T06:45:53.747Z,86.65
2016-11-30T06:46:54.405Z,86.55
2016-11-30T06:47:55.053Z,86.65
2016-11-30T06:48:55.691Z,86.46
2016-11-30T06:49:56.364Z,86.27
2016-11-30T06:50:56.981Z,86.36
2016-11-30T06:51:57.607Z,86.74
2016-11-30T06:52:58.241Z,86.83
2016-11-30T06:53:58.862Z,86.93
2016-11-30T06:54:59.517Z,87.02
2016-11-30T06:56:00.219Z,86.74
2016-11-30T06:57:00.864Z,86.83
2016-11-30T06:58:01.499Z,87.02
2016-11-30T06:59:02.107Z,86.74
2016-11-30T07:00:02.729Z,86.83
2016-11-30T07:01:03.355Z,86.74
2016-11-30T07:02:03.998Z,86.65
2016-11-30T07:03:04.664Z,86.93
2016-11-30T07:04:05.357Z,86.55
2016-11-30T07:05:05.995Z,86.83
2016-11-30T07:06:06.647Z,86.74
2016-11-30T07:07:07.337Z,86.74
2016-11-30T07:08:08.023Z,86.83
2016-11-30T07:09:08.691Z,86.74
2016-11-30T07:10:09.375Z,87.21
2016-11-30T07:11:10.044Z,87.4
2016-11-30T07:12:10.684Z,87.69
2016-11-30T07:13:11.352Z,87.5
2016-11-30T07:14:12.049Z,87.78
2016-11-30T07:15:12.727Z,88.92
2016-11-30T07:16:13.355Z,88.92
2016-11-30T07:17:14.077Z,88.92
2016-11-30T07:18:14.704Z,89.39
2016-11-30T07:19:15.346Z,89.58
2016-11-30T07:20:16.048Z,90.15
2016-11-30T07:21:16.695Z,90.44
2016-11-30T07:22:17.352Z,90.34
2016-11-30T07:23:17.986Z,90.72
2016-11-30T07:24:18.616Z,91.1
2016-11-30T07:25:19.270Z,91.38
2016-11-30T07:26:19.992Z,91.67
2016-11-30T07:27:20.629Z,91.76
2016-11-30T07:28:21.256Z,91.86
2016-11-30T07:29:21.903Z,91.86
2016-11-30T07:30:22.551Z,91.67
2016-11-30T07:31:23.165Z,91.67
2016-11-30T07:32:23.818Z,92.52
2016-11-30T07:33:24.438Z,92.33
2016-11-30T07:34:25.069Z,92.52
2016-11-30T07:35:25.709Z,92.71
2016-11-30T07:36:26.336Z,92.52
2016-11-30T07:37:27.054Z,92.71
2016-11-30T07:38:27.646Z,92.33
2016-11-30T07:39:28.313Z,91.67
2016-11-30T07:40:28.971Z,91.67
2016-11-30T07:41:29.602Z,91.19
2016-11-30T07:42:30.241Z,90.91
2016-11-30T07:43:30.900Z,91.1
2016-11-30T07:44:31.538Z,91.1
2016-11-30T07:45:32.200Z,90.72
2016-11-30T07:46:32.844Z,90.53
2016-11-30T07:47:33.483Z,90.53
2016-11-30T07:48:34.120Z,90.53
2016-11-30T07:49:34.759Z,90.44
2016-11-30T07:50:35.419Z,91
2016-11-30T07:51:36.131Z,91
2016-11-30T07:52:36.774Z,90.91
2016-11-30T07:53:37.442Z,91
2016-11-30T07:54:38.091Z,91.19
2016-11-30T07:55:38.727Z,91.86
2016-11-30T07:56:39.391Z,91.95
2016-11-30T07:57:40.092Z,91.38
2016-11-30T07:58:40.740Z,91.48
2016-11-30T07:59:41.355Z,91.38
2016-11-30T08:00:42.009Z,90.81
2016-11-30T08:01:42.659Z,91.38
2016-11-30T08:02:43.327Z,91.48
2016-11-30T08:03:44.047Z,92.24
2016-11-30T08:04:44.704Z,91.52
2016-11-30T08:05:45.347Z,91.33
2016-11-30T08:06:45.983Z,90.81
2016-11-30T08:07:46.711Z,91.29
2016-11-30T08:08:47.400Z,91.38
2016-11-30T08:09:48.030Z,91.1
2016-11-30T08:10:48.677Z,91.14
2016-11-30T08:11:49.331Z,91.48
2016-11-30T08:12:49.989Z,91
2016-11-30T08:13:50.646Z,91
2016-11-30T08:14:51.342Z,90.81
2016-11-30T08:15:52.292Z,90.63
2016-11-30T08:16:52.704Z,90.67
2016-11-30T08:17:53.447Z,90.86
2016-11-30T08:18:54.112Z,90.91
2016-11-30T08:19:54.841Z,90.91
2016-11-30T08:20:55.472Z,90.72
2016-11-30T08:21:56.135Z,90.48
2016-11-30T08:22:56.891Z,91.05
2016-11-30T08:23:57.628Z,90.95
2016-11-30T08:24:58.350Z,90.77
2016-11-30T08:25:58.963Z,91.14
2016-11-30T08:26:59.586Z,90.39
2016-11-30T08:28:00.392Z,90.67
2016-11-30T08:29:01.054Z,90.39
2016-11-30T08:30:01.728Z,90.39
2016-11-30T08:31:02.406Z,90.1
2016-11-30T08:32:03.174Z,90.48
2016-11-30T08:33:03.844Z,90.39
2016-11-30T08:34:04.568Z,91.43
2016-11-30T08:35:05.347Z,91.14
2016-11-30T08:36:06.112Z,90.95
2016-11-30T08:37:06.693Z,91.19
2016-11-30T08:38:07.333Z,91.52
2016-11-30T08:39:08.039Z,91.71
2016-11-30T08:40:08.685Z,91.81
2016-11-30T08:41:09.366Z,92.43
2016-11-30T08:42:10.042Z,92.57
2016-11-30T08:43:10.726Z,91.95
2016-11-30T08:44:11.426Z,92.66
2016-11-30T08:45:12.108Z,93.23
2016-11-30T08:46:12.749Z,92.76
2016-11-30T08:47:13.446Z,93.04
2016-11-30T08:48:14.047Z,93.23
2016-11-30T08:49:14.846Z,93.32
2016-11-30T08:50:15.495Z,93.42
2016-11-30T08:51:16.177Z,93.42
2016-11-30T08:52:16.836Z,93.51
2016-11-30T08:53:17.543Z,94.37
2016-11-30T08:54:18.344Z,94.37
2016-11-30T08:55:18.991Z,94.46
2016-11-30T08:56:19.683Z,94.74
2016-11-30T08:57:20.362Z,94.84
2016-11-30T08:58:21.047Z,94.74
2016-11-30T08:59:21.735Z,94.84
2016-11-30T09:00:22.451Z,95.6
2016-11-30T09:01:23.143Z,94.93
2016-11-30T09:02:23.813Z,95.03
2016-11-30T09:03:24.542Z,95.69
2016-11-30T09:04:25.260Z,95.31
2016-11-30T09:05:25.893Z,95.5
2016-11-30T09:06:26.564Z,95.22
2016-11-30T09:07:27.320Z,95.41
2016-11-30T09:08:27.973Z,95.69
2016-11-30T09:09:28.678Z,95.41
2016-11-30T09:10:29.353Z,95.69
2016-11-30T09:11:30.072Z,95.69
2016-11-30T09:12:30.695Z,96.26
2016-11-30T09:13:31.418Z,95.98
2016-11-30T09:14:32.127Z,95.98
2016-11-30T09:15:32.774Z,96.36
2016-11-30T09:16:33.433Z,96.36
2016-11-30T09:17:34.175Z,96.36
2016-11-30T09:18:34.832Z,96.83
2016-11-30T09:19:35.523Z,96.73
2016-11-30T09:20:36.193Z,96.55
2016-11-30T09:21:36.862Z,96.83
2016-11-30T09:22:37.564Z,96.83
2016-11-30T09:23:38.263Z,96.73
2016-11-30T09:24:39.001Z,96.36
2016-11-30T09:25:39.645Z,96.73
2016-11-30T09:26:40.484Z,97.11
2016-11-30T09:27:41.215Z,96.73
2016-11-30T09:28:41.957Z,96.92
2016-11-30T09:29:42.597Z,96.83
2016-11-30T09:30:43.212Z,97.11
2016-11-30T09:31:43.915Z,97.11
2016-11-30T09:32:44.703Z,97.02
2016-11-30T09:33:45.358Z,97.21
2016-11-30T09:34:46.143Z,97.21
2016-11-30T09:35:46.868Z,97.49
2016-11-30T09:36:47.614Z,97.97
2016-11-30T09:37:48.228Z,98.16
2016-11-30T09:38:48.982Z,97.87
2016-11-30T09:39:49.660Z,98.35
2016-11-30T09:40:50.396Z,98.25
2016-11-30T09:41:51.111Z,98.54
2016-11-30T09:42:51.799Z,98.63
2016-11-30T09:43:52.497Z,98.82
2016-11-30T09:44:53.293Z,99.48
2016-11-30T09:45:53.944Z,99.86
2016-11-30T09:46:54.673Z,99.77
2016-11-30T09:47:55.391Z,99.99
2016-11-30T09:48:56.064Z,99.99
2016-11-30T09:49:56.661Z,99.99
2016-11-30T09:50:57.433Z,99.99
2016-11-30T09:51:58.122Z,99.99
2016-11-30T09:52:58.904Z,99.99
2016-11-30T09:53:59.558Z,99.99
2016-11-30T09:55:00.215Z,99.99
2016-11-30T09:56:00.977Z,99.99
2016-11-30T09:57:01.668Z,99.99
2016-11-30T09:58:02.255Z,99.99
2016-11-30T09:59:02.923Z,99.99
2016-11-30T10:00:03.564Z,99.99
2016-11-30T10:01:04.359Z,99.99
2016-11-30T10:02:05.060Z,99.99
2016-11-30T10:03:05.717Z,99.99
2016-11-30T10:04:06.402Z,99.99
2016-11-30T10:05:07.280Z,99.99
2016-11-30T10:06:08.011Z,99.99
2016-11-30T10:07:08.760Z,99.99
2016-11-30T10:08:09.384Z,99.99
2016-11-30T10:09:10.107Z,99.99
2016-11-30T10:10:10.932Z,99.99
2016-11-30T10:11:11.484Z,99.99
2016-11-30T10:12:12.176Z,99.99
2016-11-30T10:13:12.840Z,99.39
2016-11-30T10:14:13.529Z,99.86
2016-11-30T10:15:14.246Z,99.77
2016-11-30T10:16:15.005Z,99.58
2016-11-30T10:17:15.710Z,99.01
2016-11-30T10:18:16.495Z,99.01
2016-11-30T10:19:17.090Z,98.44
2016-11-30T10:20:17.776Z,98.91
2016-11-30T10:21:18.582Z,99.1
2016-11-30T10:22:19.238Z,98.35
2016-11-30T10:23:19.925Z,99.01
2016-11-30T10:24:20.581Z,98.44
2016-11-30T10:25:21.300Z,98.68
2016-11-30T10:26:21.932Z,98.91
2016-11-30T10:27:22.602Z,98.82
2016-11-30T10:28:23.427Z,99.01
2016-11-30T10:29:24.108Z,99.25
2016-11-30T10:30:24.801Z,99.2
2016-11-30T10:31:25.650Z,98.72
2016-11-30T10:32:26.233Z,98.49
2016-11-30T10:33:26.918Z,98.96
2016-11-30T10:34:27.577Z,98.91
2016-11-30T10:35:28.248Z,98.87
2016-11-30T10:36:29.050Z,99.25
2016-11-30T10:37:29.619Z,99.06
2016-11-30T10:38:30.319Z,99.06
2016-11-30T10:39:31.007Z,98.68
2016-11-30T10:40:31.768Z,99.06
2016-11-30T10:41:32.403Z,99.53
2016-11-30T10:42:33.111Z,99.53
2016-11-30T10:43:33.813Z,99.63
2016-11-30T10:44:34.680Z,99.72
2016-11-30T10:45:35.262Z,99.82
2016-11-30T10:46:35.953Z,99.99
2016-11-30T10:47:36.622Z,99.99
2016-11-30T10:48:37.369Z,99.99
2016-11-30T10:49:38.029Z,99.99
2016-11-30T10:50:38.761Z,99.99
2016-11-30T10:51:39.447Z,99.99
2016-11-30T10:52:40.132Z,99.99
2016-11-30T10:53:40.854Z,99.99
2016-11-30T10:54:41.551Z,99.99
2016-11-30T10:55:42.204Z,99.99
2016-11-30T10:56:42.896Z,99.99
2016-11-30T10:57:43.648Z,99.99
2016-11-30T10:58:44.440Z,99.99
2016-11-30T10:59:45.093Z,99.99
2016-11-30T11:00:45.884Z,99.99
2016-11-30T11:01:46.510Z,99.99
2016-11-30T11:02:47.157Z,99.99
2016-11-30T11:03:47.799Z,99.99
2016-11-30T11:04:48.480Z,99.99
2016-11-30T11:05:49.116Z,99.99
2016-11-30T11:06:49.748Z,99.99
2016-11-30T11:07:50.421Z,99.99
2016-11-30T11:08:51.079Z,99.99
2016-11-30T11:09:51.718Z,99.99
2016-11-30T11:10:52.386Z,99.99
2016-11-30T11:11:53.070Z,99.99
2016-11-30T11:12:53.788Z,99.99
2016-11-30T11:13:54.379Z,99.99
2016-11-30T11:14:55.017Z,99.99
2016-11-30T11:15:55.649Z,99.99
2016-11-30T11:16:56.309Z,99.99
2016-11-30T11:17:56.942Z,99.99
2016-11-30T11:18:57.589Z,99.99
2016-11-30T11:19:58.285Z,99.99
2016-11-30T11:20:58.929Z,99.99
2016-11-30T11:21:59.561Z,99.99
2016-11-30T11:23:00.199Z,99.99
2016-11-30T11:24:00.918Z,99.99
2016-11-30T11:25:01.506Z,99.99
2016-11-30T11:26:02.172Z,99.99
2016-11-30T11:27:02.861Z,99.99
2016-11-30T11:28:03.520Z,99.99
2016-11-30T11:29:04.154Z,99.99
2016-11-30T11:30:04.800Z,99.99
2016-11-30T11:31:05.461Z,99.99
2016-11-30T11:32:06.130Z,99.99
2016-11-30T11:33:06.793Z,99.99
2016-11-30T11:34:07.420Z,99.99
2016-11-30T11:35:08.113Z,99.99
2016-11-30T11:36:08.759Z,99.99
2016-11-30T11:37:09.422Z,99.99
2016-11-30T11:38:10.099Z,99.99
2016-11-30T11:39:10.725Z,99.99
2016-11-30T11:40:11.401Z,99.99
2016-11-30T11:41:12.067Z,99.99
2016-11-30T11:42:12.785Z,99.99
2016-11-30T11:43:13.507Z,99.99
2016-11-30T11:44:14.092Z,99.99
2016-11-30T11:45:14.768Z,99.99
2016-11-30T11:46:15.425Z,99.99
2016-11-30T11:47:16.109Z,99.99
2016-11-30T11:48:16.716Z,99.99
2016-11-30T11:49:17.352Z,99.99
2016-11-30T11:50:18.050Z,99.99
2016-11-30T11:51:18.686Z,99.99
2016-11-30T11:52:19.363Z,99.99
2016-11-30T11:53:20.062Z,99.99
2016-11-30T11:54:20.727Z,99.99
2016-11-30T11:55:21.400Z,99.99
2016-11-30T11:56:22.065Z,99.99
2016-11-30T11:57:22.718Z,99.99
2016-11-30T11:58:23.348Z,99.99
2016-11-30T11:59:24.055Z,99.99
2016-11-30T12:00:24.777Z,99.99
2016-11-30T12:01:25.392Z,99.99
2016-11-30T12:02:26.020Z,99.99
2016-11-30T12:03:26.790Z,99.99
2016-11-30T12:04:27.427Z,99.99
2016-11-30T12:05:28.085Z,99.99
2016-11-30T12:06:28.721Z,99.99
2016-11-30T12:07:29.428Z,99.99
2016-11-30T12:08:30.061Z,99.99
2016-11-30T12:09:30.702Z,99.99
2016-11-30T12:10:31.339Z,99.99
2016-11-30T12:11:31.976Z,99.99
2016-11-30T12:12:32.644Z,99.99
2016-11-30T12:13:33.271Z,99.99
2016-11-30T12:14:33.932Z,99.99
2016-11-30T12:15:34.613Z,99.99
2016-11-30T12:16:35.282Z,99.99
2016-11-30T12:17:35.941Z,99.99
2016-11-30T12:18:36.584Z,99.99
2016-11-30T12:19:37.223Z,99.99
2016-11-30T12:20:37.910Z,99.99
2016-11-30T12:21:38.533Z,99.99
2016-11-30T12:22:39.203Z,99.99
2016-11-30T12:23:39.859Z,99.99
2016-11-30T12:24:40.504Z,99.99
2016-11-30T12:25:41.139Z,99.99
2016-11-30T12:26:41.774Z,99.99
2016-11-30T12:27:42.435Z,99.99
2016-11-30T12:28:43.131Z,99.99
2016-11-30T12:29:43.762Z,99.99
2016-11-30T12:30:44.436Z,99.99
2016-11-30T12:31:45.101Z,99.99
2016-11-30T12:32:45.732Z,99.99
2016-11-30T12:33:46.385Z,99.99
2016-11-30T12:34:47.021Z,99.99
2016-11-30T12:35:47.700Z,99.99
2016-11-30T12:36:48.390Z,99.99
2016-11-30T12:37:48.989Z,99.99
2016-11-30T12:38:49.648Z,99.99
2016-11-30T12:39:50.337Z,99.99
2016-11-30T12:40:50.956Z,99.99
2016-11-30T12:41:51.609Z,99.99
2016-11-30T12:42:52.292Z,99.99
2016-11-30T12:43:52.930Z,99.99
2016-11-30T12:44:53.589Z,99.99
2016-11-30T12:45:54.876Z,99.99
2016-11-30T12:46:55.498Z,99.99
2016-11-30T12:47:56.122Z,99.99
2016-11-30T12:48:56.773Z,99.99
2016-11-30T12:49:57.456Z,99.99
2016-11-30T12:50:58.197Z,99.99
2016-11-30T12:51:58.904Z,99.99
2016-11-30T12:52:59.585Z,99.99
2016-11-30T12:54:00.210Z,99.99
2016-11-30T12:55:00.852Z,99.99
2016-11-30T12:56:01.591Z,99.99
2016-11-30T12:57:02.217Z,99.99
2016-11-30T12:58:02.856Z,99.99
2016-11-30T12:59:03.594Z,99.99
2016-11-30T13:00:04.297Z,99.99
2016-11-30T13:01:04.937Z,99.99
2016-11-30T13:02:05.751Z,99.99
2016-11-30T13:03:06.404Z,99.99